• Join FlightAware (Why Join?)
  • Login
  • US Flag 
01:00PM EDT


 

Airport Tracker/Info


-or-


 

Live Flight TrackerFlight Track Log ✈ UAL1688 ✈ 18-Nov-2013 ✈ KORD - TJSJ / SJU

Flight Track Log - Related Links

Times and Time Zones

All times are in EST time to prevent confusion due to time zone crossing. See the UAL1688 flight status page for this flight to view local times or setup timezone preferences in your user account.

Time Position Orientation Groundspeed Altitude Reporting Facility
EST Latitude Longitude Course Direction KTS MPH feet Rate Location/Type
10:07AM 41.9667 -87.9500 167° South 161 185 2,300  Level Chicago TRACON
10:08AM 41.9333 -88.0000 228° Southwest 202 232 4,000 1,440 Climbing Chicago TRACON
10:09AM 41.8667 -88.0333 200° South 288 331 5,100 1,800 Climbing Chicago TRACON
10:10AM 41.6867 -87.5161 168° South  Level Estimated
10:10AM 41.8000 -88.0000 160° South 312 359 7,600  Level Chicago TRACON
10:11AM 41.5889 -87.3864 173° South  Level Estimated
10:11AM 41.7608 -87.9608 143° Southeast 319 367 8,900  Level Chicago Center
10:12AM 41.4909 -87.2571 163° South  Level Estimated
10:12AM 41.6914 -87.8800 139° Southeast 328 377 11,800  Level Chicago Center
10:13AM 41.3927 -87.1283 167° South  Level Estimated
10:13AM 41.6169 -87.7939 139° Southeast 347 399 13,500  Level Chicago Center
10:14AM 41.5278 -87.6911 139° Southeast 411 473 14,600 1,620 Climbing Chicago Center
10:15AM 41.4267 -87.5914 144° Southeast 455 524 16,900 2,280 Climbing Chicago Center
10:16AM 41.3100 -87.5550 167° South 432 497 19,400 2,340 Climbing Chicago Center
10:17AM 41.1692 -87.5183 169° South 428 493 21,800 1,980 Climbing Chicago Center
10:18AM 41.0492 -87.4869 169° South 434 499 23,500 1,560 Climbing Chicago Center
10:19AM 40.9267 -87.4547 169° South 445 512 25,100 1,320 Climbing Chicago Center
10:20AM 40.8006 -87.4233 169° South 454 522 26,300 1,320 Climbing Chicago Center
10:21AM 40.6733 -87.3917 169° South 463 533 27,900 1,260 Climbing Chicago Center
10:22AM 40.5464 -87.3592 169° South 465 535 29,000 960 Climbing Chicago Center
10:23AM 40.3897 -87.3036 165° South 502 578 29,900 1,080 Climbing Chicago Center
10:24AM 40.2589 -87.2439 161° South 504 580 31,300 960 Climbing Chicago Center
10:25AM 40.1322 -87.1836 160° South 494 568 32,000 660 Climbing Chicago Center
10:26AM 40.0294 -87.1364 161° South 490 564 32,600 480 Climbing Indianapolis Center
10:27AM 39.8847 -87.0319 151° Southeast 502 578 33,000 180 Climbing Indianapolis Center
10:28AM 39.7658 -86.9311 147° Southeast 512 589 33,000  Level Indianapolis Center
10:29AM 39.6494 -86.8347 147° Southeast 506 582 33,000 120 Level Indianapolis Center
10:30AM 39.5319 -86.7367 147° Southeast 508 585 33,300 660 Climbing Indianapolis Center
10:31AM 39.3908 -86.6200 147° Southeast 509 586 34,400 780 Climbing Indianapolis Center
10:32AM 39.2728 -86.5219 147° Southeast 509 586 35,000 240 Climbing Indianapolis Center
10:33AM 39.1553 -86.4256 148° Southeast 507 583 35,000  Level Indianapolis Center
10:35AM 39.0378 -86.3286 147° Southeast 505 581 35,000  Level Indianapolis Center
10:36AM 38.9208 -86.2339 148° Southeast 503 579 35,000  Level Indianapolis Center
10:37AM 38.7847 -86.1236 148° Southeast 499 574 35,000  Level Indianapolis Center
10:38AM 38.6669 -86.0275 147° Southeast 498 573 35,000  Level Indianapolis Center
10:39AM 38.5500 -85.9342 148° Southeast 493 567 35,000  Level Indianapolis Center
10:40AM 38.4325 -85.8397 148° Southeast 493 567 35,000  Level Indianapolis Center
10:41AM 38.3161 -85.7472 148° Southeast 489 563 35,000  Level Indianapolis Center
10:42AM 38.1994 -85.6542 148° Southeast 491 565 35,000  Level Indianapolis Center
10:43AM 38.0656 -85.5267 143° Southeast 504 580 35,000  Level Indianapolis Center
10:44AM 37.9628 -85.4011 136° Southeast 510 587 35,000  Level Indianapolis Center
10:45AM 37.8622 -85.2736 135° Southeast 509 586 35,000  Level Indianapolis Center
10:46AM 37.7581 -85.1422 135° Southeast 510 587 35,000  Level Indianapolis Center
10:48AM 37.5536 -84.8919 136° Southeast 511 588 35,000  Level Indianapolis Center
10:49AM 37.4514 -84.7669 136° Southeast 511 588 35,000  Level Indianapolis Center
10:50AM 37.3322 -84.6192 135° Southeast 516 594 35,000  Level Indianapolis Center
10:51AM 37.2283 -84.4936 136° Southeast 518 596 35,000  Level Indianapolis Center
10:52AM 37.1247 -84.3667 136° Southeast 519 597 35,000  Level Indianapolis Center
10:53AM 37.0211 -84.2411 136° Southeast 518 596 35,000  Level Indianapolis Center
10:54AM 36.9172 -84.1161 136° Southeast 518 596 35,000  Level Indianapolis Center
10:55AM 36.8136 -83.9922 136° Southeast 518 596 35,000  Level Indianapolis Center
10:56AM 36.6931 -83.8486 136° Southeast 515 593 35,000  Level Indianapolis Center
10:57AM 36.5914 -83.7269 136° Southeast 511 588 35,000  Level Indianapolis Center
10:58AM 36.4842 -83.5994 136° Southeast 515 593 35,000  Level Indianapolis Center
10:59AM 36.3844 -83.4819 136° Southeast 514 592 35,000  Level Indianapolis Center
11:00AM 36.2819 -83.3617 137° Southeast 510 587 35,000  Level Indianapolis Center
11:01AM 36.1622 -83.2217 137° Southeast 509 586 35,000  Level Indianapolis Center
11:02AM 36.0736 -83.1217 138° Southeast 505 581 35,000  Level Atlanta Center
11:03AM 35.9725 -83.0022 136° Southeast 505 581 35,000  Level Atlanta Center
11:04AM 35.8714 -82.8831 136° Southeast 500 575 35,000  Level Atlanta Center
11:05AM 35.7681 -82.7667 138° Southeast 500 575 35,000  Level Atlanta Center
11:06AM 35.6644 -82.6456 136° Southeast 500 575 35,000  Level Atlanta Center
11:07AM 35.5608 -82.5275 137° Southeast 500 575 35,000  Level Atlanta Center
11:08AM 35.4592 -82.4094 137° Southeast 500 575 35,000  Level Atlanta Center
11:09AM 35.3553 -82.2944 138° Southeast 500 575 35,000  Level Atlanta Center
11:10AM 35.2428 -82.1619 136° Southeast 500 575 35,000  Level Atlanta Center
11:11AM 35.1389 -82.0500 139° Southeast 500 575 35,000  Level Atlanta Center
11:12AM 35.0325 -81.9283 137° Southeast 507 583 35,000  Level Atlanta Center
11:13AM 34.9181 -81.8247 143° Southeast 507 583 35,000  Level Atlanta Center
11:15AM 34.6978 -81.6225 143° Southeast 526 605 35,000  Level Jacksonville Center
11:16AM 34.5864 -81.5206 143° Southeast 521 600 35,000  Level Jacksonville Center
11:17AM 34.4725 -81.4167 143° Southeast 514 592 35,000  Level Jacksonville Center
11:18AM 34.3586 -81.3131 143° Southeast 507 583 35,000  Level Jacksonville Center
11:19AM 34.2631 -81.1842 132° Southeast 505 581 35,000  Level Jacksonville Center
11:20AM 34.1794 -81.0375 125° Southeast 515 593 35,000 -60 Level Jacksonville Center
11:21AM 34.1025 -80.9089 126° Southeast 520 598 34,900  Descending Jacksonville Center
11:22AM 34.0167 -80.7631 125° Southeast 530 610 35,000  Climbing Jacksonville Center
11:23AM 33.9328 -80.6172 125° Southeast 530 610 35,000  Level Jacksonville Center
11:24AM 33.8508 -80.4744 125° Southeast 530 610 35,000 -60 Level Jacksonville Center
11:25AM 33.7686 -80.3292 124° Southeast 530 610 34,900  Descending Jacksonville Center
11:26AM 33.6842 -80.1844 125° Southeast 530 610 35,000  Climbing Jacksonville Center
11:27AM 33.5997 -80.0425 126° Southeast 530 610 34,900  Descending Jacksonville Center
11:28AM 33.5128 -79.8983 126° Southeast 530 610 35,000  Climbing Jacksonville Center
11:29AM 33.4303 -79.7567 125° Southeast 530 610 35,000  Level Jacksonville Center
11:30AM 33.3431 -79.6131 126° Southeast 525 604 35,000  Level Jacksonville Center
11:31AM 33.2600 -79.4744 126° Southeast 525 604 35,000 -60 Level Jacksonville Center
11:32AM 33.1728 -79.3339 127° Southeast 525 604 34,900  Descending Jacksonville Center
11:33AM 33.0850 -79.1911 126° Southeast 525 604 35,000  Climbing Jacksonville Center
11:34AM 33.0017 -79.0511 125° Southeast 525 604 35,000  Level Jacksonville Center
11:35AM 32.9139 -78.9089 126° Southeast 531 611 35,000 -60 Level Jacksonville Center
11:36AM 32.8300 -78.7692 126° Southeast 526 605 34,900  Descending Jacksonville Center
11:37AM 32.7439 -78.6297 126° Southeast 526 605 35,000  Climbing Jacksonville Center
11:38AM 32.6469 -78.4814 128° Southeast 526 605 35,000  Level Jacksonville Center
11:39AM 32.5606 -78.3353 125° Southeast 526 605 35,000 -60 Level Jacksonville Center
11:40AM 32.4739 -78.1969 127° Southeast 526 605 34,900  Descending Jacksonville Center
11:41AM 32.3872 -78.0564 126° Southeast 531 611 35,000  Climbing Jacksonville Center
11:42AM 32.3025 -77.9158 125° Southeast 531 611 35,000 -60 Level Jacksonville Center
11:43AM 32.2039 -77.7983 135° Southeast 519 597 34,900  Descending Jacksonville Center
11:44AM 32.0931 -77.6869 140° Southeast 514 592 35,000  Climbing Jacksonville Center
11:45AM 31.9783 -77.5906 145° Southeast 514 592 35,000  Level Jacksonville Center
11:46AM 31.8594 -77.4922 145° Southeast 519 597 35,000  Level Jacksonville Center
11:47AM 31.7408 -77.4039 148° Southeast 519 597 35,000 -60 Level Jacksonville Center
11:48AM 31.6239 -77.3061 145° Southeast 520 598 34,900  Descending Jacksonville Center
11:49AM 31.5008 -77.2158 148° Southeast 525 604 35,000  Climbing Jacksonville Center
11:50AM 31.3819 -77.1236 146° Southeast 525 604 35,000  Level Jacksonville Center
11:51AM 31.2625 -77.0264 145° Southeast 525 604 35,000  Level Jacksonville Center
11:53AM 31.1401 -76.9025 139° Southeast  Level FlightAware Approximate
11:55AM 31.3500 -77.0000 140° Southeast 512 589 35,000  Level New York Oceanic (ODAPS)
12:00PM 30.4701 -76.2322 139° Southeast  Level FlightAware Approximate
12:01PM 30.3741 -76.1372 139° Southeast  Level FlightAware Approximate
12:02PM 30.1397 -75.8458 141° Southeast 512 589 35,000  Level FlightAware Transoceanic
12:03PM 30.0291 -75.7423 141° Southeast 512 589 35,000  Level FlightAware Transoceanic
12:04PM 29.9185 -75.6390 141° Southeast 512 589 35,000  Level FlightAware Transoceanic
12:05PM 29.8078 -75.5360 141° Southeast 512 589 35,000  Level FlightAware Transoceanic
12:06PM 29.6971 -75.4332 141° Southeast 512 589 35,000  Level FlightAware Transoceanic
12:07PM 29.5862 -75.3306 141° Southeast 512 589 35,000  Level FlightAware Transoceanic
12:08PM 29.4753 -75.2282 141° Southeast 512 589 35,000  Level FlightAware Transoceanic
12:09PM 29.3643 -75.1261 141° Southeast 512 589 35,000  Level FlightAware Transoceanic
12:10PM 29.2532 -75.0241 141° Southeast 512 589 35,000  Level FlightAware Transoceanic
12:11PM 29.1420 -74.9224 141° Southeast 512 589 35,000  Level FlightAware Transoceanic
12:12PM 29.0308 -74.8210 141° Southeast 512 589 35,000  Level FlightAware Transoceanic
12:13PM 28.9195 -74.7197 142° Southeast 512 589 35,000  Level FlightAware Transoceanic
12:14PM 28.8081 -74.6187 142° Southeast 512 589 35,000  Level FlightAware Transoceanic
12:15PM 28.6966 -74.5178 142° Southeast 512 589 35,000  Level FlightAware Transoceanic
12:16PM 28.5851 -74.4172 142° Southeast 512 589 35,000  Level FlightAware Transoceanic
12:17PM 28.4734 -74.3168 142° Southeast 512 589 35,000  Level FlightAware Transoceanic
12:18PM 28.3618 -74.2166 142° Southeast 512 589 35,000  Level FlightAware Transoceanic
12:19PM 28.2500 -74.1167 149° Southeast 512 589 35,000  Level FlightAware Transoceanic
12:20PM 28.1256 -74.0330 149° Southeast 512 589 35,000  Level FlightAware Transoceanic
12:21PM 28.0011 -73.9495 149° Southeast 512 589 35,000  Level FlightAware Transoceanic
12:21PM 28.2500 -74.1167 149° Southeast 519 597 35,000  Level New York Oceanic (ODAPS)
12:22PM 27.8766 -73.8661 149° Southeast 512 589 35,000  Level FlightAware Transoceanic
12:23PM 27.7521 -73.7830 149° Southeast 512 589 35,000  Level FlightAware Transoceanic
12:24PM 27.6275 -73.7001 150° Southeast 512 589 35,000  Level FlightAware Transoceanic
12:25PM 27.5028 -73.6173 150° Southeast 512 589 35,000  Level FlightAware Transoceanic
12:26PM 27.3781 -73.5348 150° Southeast 512 589 35,000  Level FlightAware Transoceanic
12:27PM 27.2534 -73.4524 150° Southeast 519 597 35,000  Level FlightAware Transoceanic
12:28PM 27.1286 -73.3702 150° Southeast 519 597 35,000  Level FlightAware Transoceanic
12:29PM 27.0037 -73.2882 150° Southeast 519 597 35,000  Level FlightAware Transoceanic
12:30PM 26.8788 -73.2064 150° Southeast 519 597 35,000  Level FlightAware Transoceanic
12:31PM 26.7539 -73.1247 150° Southeast 519 597 35,000  Level FlightAware Transoceanic
12:32PM 26.6289 -73.0433 150° Southeast 519 597 35,000  Level FlightAware Transoceanic
12:33PM 26.5039 -72.9620 150° Southeast 519 597 35,000  Level FlightAware Transoceanic
12:34PM 26.3788 -72.8809 150° Southeast 519 597 35,000  Level FlightAware Transoceanic
12:35PM 26.2537 -72.7999 150° Southeast 519 597 35,000  Level FlightAware Transoceanic
12:36PM 26.1285 -72.7192 150° Southeast 519 597 35,000  Level FlightAware Transoceanic
12:37PM 26.0033 -72.6386 150° Southeast 519 597 35,000  Level FlightAware Transoceanic
12:38PM 25.8780 -72.5582 150° Southeast 519 597 35,000 1,080 Level FlightAware Transoceanic
12:38PM 25.7794 -72.5161 150° Southeast 448 516 37,000  Climbing Miami Center
12:39PM 25.7527 -72.4780 150° Southeast 519 597 35,000  Descending FlightAware Transoceanic
12:39PM 25.6731 -72.4486 150° Southeast 461 531 37,000  Climbing Miami Center
12:40PM 25.6274 -72.3979 150° Southeast 519 597 35,000  Descending FlightAware Transoceanic
12:40PM 25.5472 -72.3681 150° Southeast 494 568 37,000  Climbing Miami Center
12:41PM 25.5020 -72.3180 150° Southeast 519 597 35,000  Descending FlightAware Transoceanic
12:41PM 25.4278 -72.2897 149° Southeast 499 574 37,000  Climbing Miami Center
12:42PM 25.3766 -72.2382 150° Southeast 519 597 35,000  Descending FlightAware Transoceanic
12:42PM 25.3086 -72.2139 150° Southeast 505 581 37,000  Climbing Miami Center
12:43PM 25.2511 -72.1587 150° Southeast 519 597 35,000  Descending FlightAware Transoceanic
12:43PM 25.1850 -72.1361 150° Southeast 505 581 37,000  Climbing Miami Center
12:44PM 25.1256 -72.0792 150° Southeast 519 597 35,000  Descending FlightAware Transoceanic
12:44PM 25.0656 -72.0603 150° Southeast 505 581 37,000 1,080 Climbing Miami Center
12:45PM 24.9386 -72.0058 159° South 502 578 37,000  Level Miami Center
12:46PM 24.7978 -71.9839 172° South 496 571 37,000  Level Miami Center
12:47PM 24.6636 -71.9664 173° South 501 577 37,000  Level Miami Center
12:48PM 24.5397 -71.8822 148° Southeast 458 527 37,000  Level Miami Center
12:49PM 24.4422 -71.7744 135° Southeast 481 554 37,000  Level Miami Center
12:50PM 24.3403 -71.6669 136° Southeast 486 559 37,000  Level Miami Center
12:51PM 24.2425 -71.5572 134° Southeast 496 571 37,000  Level Miami Center
12:52PM 24.1386 -71.4547 138° Southeast 505 581 37,000  Level Miami Center
12:53PM 24.0386 -71.3475 136° Southeast 499 574 37,000  Level Miami Center
12:54PM 23.9386 -71.2431 136° Southeast 499 574 37,000  Level Miami Center
12:55PM 23.8344 -71.1386 137° Southeast 499 574 37,000  Level Miami Center
12:56PM 23.7364 -71.0367 136° Southeast 494 568 37,000  Level Miami Center
12:57PM 23.6342 -70.9258 135° Southeast 501 577 37,000  Level Miami Center
12:58PM 23.5300 -70.8286 139° Southeast 497 572 37,000  Level Miami Center
12:59PM 23.4294 -70.7181 135° Southeast 497 572 37,000  Level Miami Center
01:00PM 23.3269 -70.6122 137° Southeast 502 578 37,000  Level Miami Center
01:01PM 23.2247 -70.5092 137° Southeast 502 578 37,000  Level Miami Center
01:02PM 23.1197 -70.3992 136° Southeast 507 583 37,000  Level Miami Center
01:03PM 23.0175 -70.2983 138° Southeast 507 583 37,000  Level Miami Center
01:04PM 22.9144 -70.1889 136° Southeast 507 583 37,000  Level Miami Center
01:05PM 22.8250 -70.0989 137° Southeast 507 583 37,000  Level Miami Center
01:06PM 22.7200 -69.9919 137° Southeast 507 583 37,000  Level Miami Center
01:07PM 22.6153 -69.8897 138° Southeast 513 590 37,000  Level Miami Center
01:08PM 22.5144 -69.7850 136° Southeast 507 583 37,000  Level Miami Center
01:09PM 22.4139 -69.6850 137° Southeast 504 580 37,000  Level Miami Center
01:10PM 22.3067 -69.5789 138° Southeast 504 580 37,000  Level Miami Center
01:11PM 22.2014 -69.4728 137° Southeast 509 586 37,000  Level Miami Center
01:12PM 22.0964 -69.3714 138° Southeast 509 586 37,000  Level Miami Center
01:13PM 21.9933 -69.2678 137° Southeast 514 592 37,000  Level Miami Center
01:14PM 21.8903 -69.1642 137° Southeast 509 586 37,000  Level Miami Center
01:15PM 21.7850 -69.0633 138° Southeast 509 586 37,000  Level Miami Center
01:16PM 21.6797 -68.9581 137° Southeast 509 586 37,000  Level Miami Center
01:17PM 21.5742 -68.8550 138° Southeast 514 592 37,000  Level Miami Center
01:18PM 21.4731 -68.7542 137° Southeast 509 586 37,000  Level Miami Center
01:19PM 21.3697 -68.6517 137° Southeast 509 586 37,000  Level Miami Center
01:20PM 21.2664 -68.5489 137° Southeast 509 586 37,000  Level Miami Center
01:21PM 21.1567 -68.4469 139° Southeast 511 588 37,000  Level Miami Center
01:22PM 21.0553 -68.3444 137° Southeast 511 588 37,000  Level Miami Center
01:23PM 20.9497 -68.2425 138° Southeast 511 588 37,000  Level Miami Center
01:24PM 20.8442 -68.1431 139° Southeast 511 588 37,000  Level Miami Center
01:25PM 20.7256 -68.0667 149° Southeast 506 582 37,000  Level Miami Center
01:26PM 20.5922 -68.0286 165° South 500 575 37,000  Level Miami Center
01:27PM 20.4608 -67.9886 164° South 494 568 37,000  Level Miami Center
01:28PM 20.3233 -67.9489 165° South 500 575 37,000  Level Miami Center
01:29PM 20.1861 -67.9114 166° South 507 583 37,000  Level Miami Center
01:30PM 20.0589 -67.8689 163° South 500 575 37,000  Level Miami Center
01:31PM 19.9194 -67.8319 166° South 500 575 37,000  Level Miami Center
01:32PM 19.7864 -67.7942 165° South 500 575 37,000  Level Miami Center
01:33PM 19.6569 -67.7522 163° South 495 570 37,000 -120 Level Miami Center
01:34PM 19.5833 -67.7333 166° South 490 564 36,900 -1,800 Descending San Juan Center
01:35PM 19.4500 -67.6833 161° South 500 575 34,300 -3,420 Descending San Juan Center
01:36PM 19.3667 -67.5667 127° Southeast 520 598 30,100 -3,180 Descending San Juan Center
01:37PM 19.2833 -67.4333 123° Southeast 490 564 28,000 -2,160 Descending San Juan Center
01:38PM 19.2167 -67.3333 125° Southeast 460 529 25,800 -2,100 Descending San Juan Center
01:39PM 19.1500 -67.2167 121° Southeast 430 495 23,800 -2,100 Descending San Juan Center
01:40PM 19.0833 -67.1167 125° Southeast 420 483 21,600 -2,100 Descending San Juan Center
01:41PM 19.0167 -67.0167 125° Southeast 400 460 19,700 -1,920 Descending San Juan Center
01:42PM 18.9667 -66.9333 122° Southeast 390 449 17,800 -1,920 Descending San Juan Center
01:43PM 18.9000 -66.8333 125° Southeast 380 437 15,900 -1,980 Descending San Juan Center
01:44PM 18.8500 -66.7500 122° Southeast 370 426 13,900 -2,100 Descending San Juan Center
01:45PM 18.7833 -66.6667 130° Southeast 350 403 11,800 -1,500 Descending San Juan Center
01:46PM 18.7333 -66.5833 122° Southeast 340 391 11,000 -1,260 Descending San Juan Center
01:47PM 18.6833 -66.5000 122° Southeast 300 345 9,300 -1,560 Descending San Juan Center
01:48PM 18.6333 -66.4333 128° Southeast 290 334 7,900 -1,560 Descending San Juan Center
01:49PM 18.5833 -66.3833 137° Southeast 280 322 6,300 -1,320 Descending San Juan Center
01:50PM 18.5333 -66.3167 128° Southeast 240 276 5,300 -1,200 Descending San Juan Center
01:51PM 18.4833 -66.2667 137° Southeast 220 253 3,900 -1,380 Descending San Juan Center
01:52PM 18.4500 -66.2167 125° Southeast 210 242 2,600 -840 Descending San Juan Center
01:53PM 18.4167 -66.1667 125° Southeast 190 219 2,300 -420 Descending San Juan Center
01:54PM 18.4333 -66.1167 71° East 180 207 1,800 -600 Descending San Juan Center
01:55PM 18.4333 -66.0667 90° East 150 173 1,100 -780 Descending San Juan Center
01:56PM 18.4333 -66.0167 90° East 150 173 300 -840 Descending San Juan Center